Terminal Aerodrome Forecast
Issued by NWS

Home | Current Version | Previous Version | Text Only | Print | Product List | Glossary On
Versions: 1 2 3 4 5 6 7 8 9 10 11 12 13 14 15 16 17 18 19 20 21 22 23 24 25
000
FTUS43 KGLD 050539 AAA
TAFMCK
TAF AMD
KMCK 050539Z 0506/0606 17014G22KT P6SM BKN250 WS020/19040KT
     FM051000 18012KT P6SM BKN200
     FM051700 18018G25KT P6SM SCT100 BKN250
     FM060100 18013KT P6SM BKN250=

USA.gov is the U.S. government's official web portal to all federal, state and local government web resources and services.